sensor_id;sensor_type;location;lat;lon;timestamp;P1;durP1;ratioP1;P2;durP2;ratioP2
50355;SDS011;36264;51.296;-0.602;2023-04-08T00:00:12;5.22;;;2.60;;
50355;SDS011;36264;51.296;-0.602;2023-04-08T00:02:38;6.03;;;2.90;;
50355;SDS011;36264;51.296;-0.602;2023-04-08T00:05:03;4.70;;;2.38;;
50355;SDS011;36264;51.296;-0.602;2023-04-08T00:07:29;6.75;;;2.38;;
50355;SDS011;36264;51.296;-0.602;2023-04-08T00:09:55;5.60;;;2.80;;
50355;SDS011;36264;51.296;-0.602;2023-04-08T00:12:20;5.07;;;2.83;;
50355;SDS011;36264;51.296;-0.602;2023-04-08T00:14:46;8.30;;;2.70;;
50355;SDS011;36264;51.296;-0.602;2023-04-08T00:17:11;5.65;;;2.83;;
50355;SDS011;36264;51.296;-0.602;2023-04-08T00:19:37;7.40;;;2.90;;
50355;SDS011;36264;51.296;-0.602;2023-04-08T00:22:02;5.85;;;2.92;;
50355;SDS011;36264;51.296;-0.602;2023-04-08T00:24:27;5.78;;;2.70;;
50355;SDS011;36264;51.296;-0.602;2023-04-08T00:26:53;6.57;;;2.72;;
50355;SDS011;36264;51.296;-0.602;2023-04-08T00:29:18;5.38;;;2.63;;
50355;SDS011;36264;51.296;-0.602;2023-04-08T00:31:43;5.03;;;2.70;;
50355;SDS011;36264;51.296;-0.602;2023-04-08T00:34:09;7.05;;;3.15;;
50355;SDS011;36264;51.296;-0.602;2023-04-08T00:36:35;6.35;;;3.05;;
50355;SDS011;36264;51.296;-0.602;2023-04-08T00:39:01;7.15;;;3.13;;
50355;SDS011;36264;51.296;-0.602;2023-04-08T00:41:28;6.53;;;3.25;;
50355;SDS011;36264;51.296;-0.602;2023-04-08T00:43:53;4.55;;;2.50;;
50355;SDS011;36264;51.296;-0.602;2023-04-08T00:46:19;6.82;;;2.70;;
50355;SDS011;36264;51.296;-0.602;2023-04-08T00:48:45;5.10;;;2.83;;
50355;SDS011;36264;51.296;-0.602;2023-04-08T00:51:11;6.53;;;2.70;;
50355;SDS011;36264;51.296;-0.602;2023-04-08T00:53:37;5.78;;;2.80;;
50355;SDS011;36264;51.296;-0.602;2023-04-08T00:56:02;7.75;;;2.83;;
50355;SDS011;36264;51.296;-0.602;2023-04-08T00:58:28;5.72;;;2.92;;
50355;SDS011;36264;51.296;-0.602;2023-04-08T01:00:57;5.30;;;2.58;;
50355;SDS011;36264;51.296;-0.602;2023-04-08T01:06:27;7.68;;;2.90;;
50355;SDS011;36264;51.296;-0.602;2023-04-08T01:09:00;4.82;;;2.63;;
50355;SDS011;36264;51.296;-0.602;2023-04-08T01:11:30;6.25;;;3.15;;
50355;SDS011;36264;51.296;-0.602;2023-04-08T01:13:58;6.32;;;2.88;;
50355;SDS011;36264;51.296;-0.602;2023-04-08T01:16:29;5.65;;;2.80;;
50355;SDS011;36264;51.296;-0.602;2023-04-08T01:18:55;5.65;;;3.05;;
50355;SDS011;36264;51.296;-0.602;2023-04-08T01:21:21;4.95;;;3.00;;
50355;SDS011;36264;51.296;-0.602;2023-04-08T01:23:58;6.90;;;2.75;;
50355;SDS011;36264;51.296;-0.602;2023-04-08T01:26:37;5.53;;;2.97;;
50355;SDS011;36264;51.296;-0.602;2023-04-08T01:29:04;6.47;;;2.90;;
50355;SDS011;36264;51.296;-0.602;2023-04-08T01:31:31;7.30;;;3.10;;
50355;SDS011;36264;51.296;-0.602;2023-04-08T01:33:58;6.18;;;2.70;;
50355;SDS011;36264;51.296;-0.602;2023-04-08T01:36:25;6.97;;;3.33;;
50355;SDS011;36264;51.296;-0.602;2023-04-08T01:38:52;6.63;;;3.20;;
50355;SDS011;36264;51.296;-0.602;2023-04-08T01:41:17;6.60;;;2.97;;
50355;SDS011;36264;51.296;-0.602;2023-04-08T01:43:45;5.50;;;2.67;;
50355;SDS011;36264;51.296;-0.602;2023-04-08T01:46:12;5.82;;;2.83;;
50355;SDS011;36264;51.296;-0.602;2023-04-08T01:48:38;5.68;;;2.65;;
50355;SDS011;36264;51.296;-0.602;2023-04-08T01:51:04;5.30;;;2.97;;
50355;SDS011;36264;51.296;-0.602;2023-04-08T01:53:30;5.78;;;3.05;;
50355;SDS011;36264;51.296;-0.602;2023-04-08T01:56:06;5.30;;;2.50;;
50355;SDS011;36264;51.296;-0.602;2023-04-08T01:58:38;6.32;;;2.83;;
50355;SDS011;36264;51.296;-0.602;2023-04-08T02:01:09;5.43;;;3.10;;
50355;SDS011;36264;51.296;-0.602;2023-04-08T02:03:37;6.72;;;3.28;;
50355;SDS011;36264;51.296;-0.602;2023-04-08T02:06:05;6.40;;;3.38;;
50355;SDS011;36264;51.296;-0.602;2023-04-08T02:08:32;6.30;;;3.38;;
50355;SDS011;36264;51.296;-0.602;2023-04-08T02:10:58;4.97;;;2.70;;
50355;SDS011;36264;51.296;-0.602;2023-04-08T02:13:24;4.22;;;2.50;;
50355;SDS011;36264;51.296;-0.602;2023-04-08T02:15:55;5.75;;;3.20;;
50355;SDS011;36264;51.296;-0.602;2023-04-08T02:18:25;7.22;;;3.25;;
50355;SDS011;36264;51.296;-0.602;2023-04-08T02:20:56;5.97;;;3.45;;
50355;SDS011;36264;51.296;-0.602;2023-04-08T02:23:44;6.30;;;3.13;;
50355;SDS011;36264;51.296;-0.602;2023-04-08T02:26:14;6.47;;;3.38;;
50355;SDS011;36264;51.296;-0.602;2023-04-08T02:28:41;5.72;;;3.00;;
50355;SDS011;36264;51.296;-0.602;2023-04-08T02:31:10;5.88;;;2.90;;
50355;SDS011;36264;51.296;-0.602;2023-04-08T02:33:40;4.95;;;3.00;;
50355;SDS011;36264;51.296;-0.602;2023-04-08T02:36:07;7.20;;;3.13;;
50355;SDS011;36264;51.296;-0.602;2023-04-08T02:38:33;6.60;;;3.40;;
50355;SDS011;36264;51.296;-0.602;2023-04-08T02:40:59;6.28;;;3.15;;
50355;SDS011;36264;51.296;-0.602;2023-04-08T02:43:24;5.60;;;2.92;;
50355;SDS011;36264;51.296;-0.602;2023-04-08T02:45:57;7.18;;;3.13;;
50355;SDS011;36264;51.296;-0.602;2023-04-08T02:48:27;6.30;;;3.35;;
50355;SDS011;36264;51.296;-0.602;2023-04-08T02:50:53;5.85;;;2.80;;
50355;SDS011;36264;51.296;-0.602;2023-04-08T02:53:19;5.72;;;3.10;;
50355;SDS011;36264;51.296;-0.602;2023-04-08T02:55:44;9.07;;;3.30;;
50355;SDS011;36264;51.296;-0.602;2023-04-08T02:58:10;5.38;;;3.08;;
50355;SDS011;36264;51.296;-0.602;2023-04-08T03:00:35;8.05;;;3.00;;
50355;SDS011;36264;51.296;-0.602;2023-04-08T03:03:03;5.53;;;3.35;;
50355;SDS011;36264;51.296;-0.602;2023-04-08T03:05:29;6.50;;;2.88;;
50355;SDS011;36264;51.296;-0.602;2023-04-08T03:07:54;6.53;;;2.95;;
50355;SDS011;36264;51.296;-0.602;2023-04-08T03:10:19;7.40;;;2.97;;
50355;SDS011;36264;51.296;-0.602;2023-04-08T03:12:45;6.07;;;2.97;;
50355;SDS011;36264;51.296;-0.602;2023-04-08T03:15:10;5.88;;;3.08;;
50355;SDS011;36264;51.296;-0.602;2023-04-08T03:17:36;4.80;;;2.90;;
50355;SDS011;36264;51.296;-0.602;2023-04-08T03:20:01;5.95;;;2.92;;
50355;SDS011;36264;51.296;-0.602;2023-04-08T03:22:28;6.07;;;2.83;;
50355;SDS011;36264;51.296;-0.602;2023-04-08T03:24:54;5.00;;;2.88;;
50355;SDS011;36264;51.296;-0.602;2023-04-08T03:27:19;4.63;;;2.72;;
50355;SDS011;36264;51.296;-0.602;2023-04-08T03:29:45;6.50;;;2.67;;
50355;SDS011;36264;51.296;-0.602;2023-04-08T03:32:10;4.15;;;2.40;;
50355;SDS011;36264;51.296;-0.602;2023-04-08T03:34:36;6.55;;;2.83;;
50355;SDS011;36264;51.296;-0.602;2023-04-08T03:37:01;4.93;;;2.80;;
50355;SDS011;36264;51.296;-0.602;2023-04-08T03:39:27;5.28;;;2.75;;
50355;SDS011;36264;51.296;-0.602;2023-04-08T03:41:52;5.05;;;2.30;;
50355;SDS011;36264;51.296;-0.602;2023-04-08T03:44:17;5.07;;;2.70;;
50355;SDS011;36264;51.296;-0.602;2023-04-08T03:46:43;5.25;;;2.78;;
50355;SDS011;36264;51.296;-0.602;2023-04-08T03:49:08;4.03;;;2.15;;
50355;SDS011;36264;51.296;-0.602;2023-04-08T03:51:33;5.03;;;2.67;;
50355;SDS011;36264;51.296;-0.602;2023-04-08T03:53:59;4.45;;;2.40;;
50355;SDS011;36264;51.296;-0.602;2023-04-08T03:56:24;5.40;;;2.92;;
50355;SDS011;36264;51.296;-0.602;2023-04-08T03:58:50;4.18;;;2.25;;
50355;SDS011;36264;51.296;-0.602;2023-04-08T04:01:15;6.70;;;2.60;;
50355;SDS011;36264;51.296;-0.602;2023-04-08T04:03:41;5.20;;;2.70;;
50355;SDS011;36264;51.296;-0.602;2023-04-08T04:06:06;5.28;;;2.60;;
50355;SDS011;36264;51.296;-0.602;2023-04-08T04:08:31;5.22;;;2.72;;
50355;SDS011;36264;51.296;-0.602;2023-04-08T04:11:00;4.63;;;2.50;;
50355;SDS011;36264;51.296;-0.602;2023-04-08T04:13:25;5.90;;;2.45;;
50355;SDS011;36264;51.296;-0.602;2023-04-08T04:15:50;4.53;;;2.40;;
50355;SDS011;36264;51.296;-0.602;2023-04-08T04:18:16;5.88;;;2.60;;
50355;SDS011;36264;51.296;-0.602;2023-04-08T04:20:41;5.55;;;2.75;;
50355;SDS011;36264;51.296;-0.602;2023-04-08T04:23:07;4.40;;;2.65;;
50355;SDS011;36264;51.296;-0.602;2023-04-08T04:25:33;5.68;;;2.50;;
50355;SDS011;36264;51.296;-0.602;2023-04-08T04:27:59;4.72;;;2.53;;
50355;SDS011;36264;51.296;-0.602;2023-04-08T04:30:25;5.55;;;2.60;;
50355;SDS011;36264;51.296;-0.602;2023-04-08T04:32:51;4.28;;;2.42;;
50355;SDS011;36264;51.296;-0.602;2023-04-08T04:35:16;4.72;;;2.70;;
50355;SDS011;36264;51.296;-0.602;2023-04-08T04:37:41;6.43;;;2.78;;
50355;SDS011;36264;51.296;-0.602;2023-04-08T04:40:07;6.05;;;2.67;;
50355;SDS011;36264;51.296;-0.602;2023-04-08T04:42:32;5.80;;;2.58;;
50355;SDS011;36264;51.296;-0.602;2023-04-08T04:44:58;4.55;;;2.20;;
50355;SDS011;36264;51.296;-0.602;2023-04-08T04:47:24;5.30;;;2.42;;
50355;SDS011;36264;51.296;-0.602;2023-04-08T04:49:49;4.80;;;2.42;;
50355;SDS011;36264;51.296;-0.602;2023-04-08T04:52:15;5.35;;;2.67;;
50355;SDS011;36264;51.296;-0.602;2023-04-08T04:54:41;9.02;;;3.20;;
50355;SDS011;36264;51.296;-0.602;2023-04-08T04:57:06;5.05;;;3.03;;
50355;SDS011;36264;51.296;-0.602;2023-04-08T04:59:32;5.18;;;2.60;;
50355;SDS011;36264;51.296;-0.602;2023-04-08T05:01:57;5.88;;;2.92;;
50355;SDS011;36264;51.296;-0.602;2023-04-08T05:04:23;6.25;;;2.75;;
50355;SDS011;36264;51.296;-0.602;2023-04-08T05:06:49;5.80;;;2.70;;
50355;SDS011;36264;51.296;-0.602;2023-04-08T05:09:14;5.03;;;2.63;;
50355;SDS011;36264;51.296;-0.602;2023-04-08T05:11:39;5.72;;;2.70;;
50355;SDS011;36264;51.296;-0.602;2023-04-08T05:14:05;6.03;;;3.00;;
50355;SDS011;36264;51.296;-0.602;2023-04-08T05:16:31;5.55;;;2.90;;
50355;SDS011;36264;51.296;-0.602;2023-04-08T05:18:56;6.25;;;2.85;;
50355;SDS011;36264;51.296;-0.602;2023-04-08T05:21:22;6.25;;;2.72;;
50355;SDS011;36264;51.296;-0.602;2023-04-08T05:23:47;4.93;;;2.53;;
50355;SDS011;36264;51.296;-0.602;2023-04-08T05:26:14;7.60;;;3.10;;
50355;SDS011;36264;51.296;-0.602;2023-04-08T05:28:40;6.45;;;2.90;;
50355;SDS011;36264;51.296;-0.602;2023-04-08T05:31:05;6.22;;;3.15;;
50355;SDS011;36264;51.296;-0.602;2023-04-08T05:33:31;6.07;;;3.08;;
50355;SDS011;36264;51.296;-0.602;2023-04-08T05:35:56;6.38;;;3.17;;
50355;SDS011;36264;51.296;-0.602;2023-04-08T05:38:21;5.95;;;3.25;;
50355;SDS011;36264;51.296;-0.602;2023-04-08T05:40:47;8.30;;;2.90;;
50355;SDS011;36264;51.296;-0.602;2023-04-08T05:43:12;7.18;;;3.10;;
50355;SDS011;36264;51.296;-0.602;2023-04-08T05:45:37;6.07;;;3.05;;
50355;SDS011;36264;51.296;-0.602;2023-04-08T05:48:03;8.40;;;3.33;;
50355;SDS011;36264;51.296;-0.602;2023-04-08T05:50:28;8.00;;;3.47;;
50355;SDS011;36264;51.296;-0.602;2023-04-08T05:52:54;8.13;;;3.90;;
50355;SDS011;36264;51.296;-0.602;2023-04-08T05:55:19;7.80;;;4.10;;
50355;SDS011;36264;51.296;-0.602;2023-04-08T05:57:44;9.70;;;3.85;;
50355;SDS011;36264;51.296;-0.602;2023-04-08T06:00:10;11.98;;;4.25;;
50355;SDS011;36264;51.296;-0.602;2023-04-08T06:02:35;9.73;;;4.00;;
50355;SDS011;36264;51.296;-0.602;2023-04-08T06:05:02;7.78;;;3.90;;
50355;SDS011;36264;51.296;-0.602;2023-04-08T06:07:28;12.50;;;4.63;;
50355;SDS011;36264;51.296;-0.602;2023-04-08T06:09:54;10.52;;;4.55;;
50355;SDS011;36264;51.296;-0.602;2023-04-08T06:12:19;10.80;;;4.53;;
50355;SDS011;36264;51.296;-0.602;2023-04-08T06:14:45;11.07;;;4.93;;
50355;SDS011;36264;51.296;-0.602;2023-04-08T06:17:11;10.13;;;5.07;;
50355;SDS011;36264;51.296;-0.602;2023-04-08T06:19:37;12.80;;;5.53;;
50355;SDS011;36264;51.296;-0.602;2023-04-08T06:22:02;19.52;;;6.03;;
50355;SDS011;36264;51.296;-0.602;2023-04-08T06:24:27;13.23;;;5.97;;
50355;SDS011;36264;51.296;-0.602;2023-04-08T06:26:53;12.95;;;5.82;;
50355;SDS011;36264;51.296;-0.602;2023-04-08T06:29:20;11.35;;;5.90;;
50355;SDS011;36264;51.296;-0.602;2023-04-08T06:31:46;43.45;;;6.90;;
50355;SDS011;36264;51.296;-0.602;2023-04-08T06:34:12;14.32;;;6.75;;
50355;SDS011;36264;51.296;-0.602;2023-04-08T06:36:37;19.35;;;7.10;;
50355;SDS011;36264;51.296;-0.602;2023-04-08T06:39:03;16.38;;;6.30;;
50355;SDS011;36264;51.296;-0.602;2023-04-08T06:41:28;11.65;;;5.80;;
50355;SDS011;36264;51.296;-0.602;2023-04-08T06:43:54;13.55;;;5.53;;
50355;SDS011;36264;51.296;-0.602;2023-04-08T06:46:20;12.57;;;5.63;;
50355;SDS011;36264;51.296;-0.602;2023-04-08T06:48:45;10.85;;;5.55;;
50355;SDS011;36264;51.296;-0.602;2023-04-08T06:51:11;12.38;;;5.65;;
50355;SDS011;36264;51.296;-0.602;2023-04-08T06:53:36;9.30;;;5.20;;
50355;SDS011;36264;51.296;-0.602;2023-04-08T06:56:01;20.42;;;5.75;;
50355;SDS011;36264;51.296;-0.602;2023-04-08T06:58:27;9.73;;;5.40;;
50355;SDS011;36264;51.296;-0.602;2023-04-08T07:00:53;9.27;;;5.38;;
50355;SDS011;36264;51.296;-0.602;2023-04-08T07:03:22;19.35;;;5.53;;
50355;SDS011;36264;51.296;-0.602;2023-04-08T07:05:47;9.88;;;5.35;;
50355;SDS011;36264;51.296;-0.602;2023-04-08T07:08:13;9.45;;;5.45;;
50355;SDS011;36264;51.296;-0.602;2023-04-08T07:10:38;11.35;;;5.40;;
50355;SDS011;36264;51.296;-0.602;2023-04-08T07:13:04;12.77;;;5.85;;
50355;SDS011;36264;51.296;-0.602;2023-04-08T07:15:29;9.15;;;4.80;;
50355;SDS011;36264;51.296;-0.602;2023-04-08T07:17:55;16.92;;;5.78;;
50355;SDS011;36264;51.296;-0.602;2023-04-08T07:20:21;29.77;;;5.80;;
50355;SDS011;36264;51.296;-0.602;2023-04-08T07:22:47;12.82;;;4.93;;
50355;SDS011;36264;51.296;-0.602;2023-04-08T07:25:12;8.95;;;5.10;;
50355;SDS011;36264;51.296;-0.602;2023-04-08T07:27:38;11.35;;;4.47;;
50355;SDS011;36264;51.296;-0.602;2023-04-08T07:30:03;9.43;;;5.28;;
50355;SDS011;36264;51.296;-0.602;2023-04-08T07:32:29;8.20;;;4.68;;
50355;SDS011;36264;51.296;-0.602;2023-04-08T07:34:55;7.72;;;4.43;;
50355;SDS011;36264;51.296;-0.602;2023-04-08T07:37:22;9.25;;;5.57;;
50355;SDS011;36264;51.296;-0.602;2023-04-08T07:39:48;8.85;;;5.15;;
50355;SDS011;36264;51.296;-0.602;2023-04-08T07:42:13;12.55;;;5.05;;
50355;SDS011;36264;51.296;-0.602;2023-04-08T07:44:38;12.52;;;5.03;;
50355;SDS011;36264;51.296;-0.602;2023-04-08T07:47:04;11.07;;;4.45;;
50355;SDS011;36264;51.296;-0.602;2023-04-08T07:49:29;7.57;;;4.03;;
50355;SDS011;36264;51.296;-0.602;2023-04-08T07:51:55;8.25;;;4.10;;
50355;SDS011;36264;51.296;-0.602;2023-04-08T07:54:21;9.13;;;4.75;;
50355;SDS011;36264;51.296;-0.602;2023-04-08T07:56:46;8.82;;;4.25;;
50355;SDS011;36264;51.296;-0.602;2023-04-08T07:59:12;10.00;;;5.03;;
50355;SDS011;36264;51.296;-0.602;2023-04-08T08:01:37;11.90;;;4.72;;
50355;SDS011;36264;51.296;-0.602;2023-04-08T08:04:03;10.32;;;5.57;;
50355;SDS011;36264;51.296;-0.602;2023-04-08T08:06:28;10.40;;;4.65;;
50355;SDS011;36264;51.296;-0.602;2023-04-08T08:08:56;10.50;;;4.93;;
50355;SDS011;36264;51.296;-0.602;2023-04-08T08:11:21;10.25;;;5.30;;
50355;SDS011;36264;51.296;-0.602;2023-04-08T08:13:47;10.45;;;5.07;;
50355;SDS011;36264;51.296;-0.602;2023-04-08T08:16:12;10.32;;;5.13;;
50355;SDS011;36264;51.296;-0.602;2023-04-08T08:18:38;10.63;;;5.85;;
50355;SDS011;36264;51.296;-0.602;2023-04-08T08:21:05;10.70;;;5.47;;
50355;SDS011;36264;51.296;-0.602;2023-04-08T08:23:30;11.18;;;5.63;;
50355;SDS011;36264;51.296;-0.602;2023-04-08T08:26:00;10.90;;;5.70;;
50355;SDS011;36264;51.296;-0.602;2023-04-08T08:28:30;9.35;;;6.05;;
50355;SDS011;36264;51.296;-0.602;2023-04-08T08:30:56;10.50;;;5.63;;
50355;SDS011;36264;51.296;-0.602;2023-04-08T08:33:21;10.52;;;5.18;;
50355;SDS011;36264;51.296;-0.602;2023-04-08T08:35:46;9.88;;;5.05;;
50355;SDS011;36264;51.296;-0.602;2023-04-08T08:38:12;9.63;;;5.47;;
50355;SDS011;36264;51.296;-0.602;2023-04-08T08:40:38;10.27;;;5.85;;
50355;SDS011;36264;51.296;-0.602;2023-04-08T08:43:04;10.65;;;6.13;;
50355;SDS011;36264;51.296;-0.602;2023-04-08T08:45:29;11.95;;;5.78;;
50355;SDS011;36264;51.296;-0.602;2023-04-08T08:47:55;12.20;;;6.43;;
50355;SDS011;36264;51.296;-0.602;2023-04-08T08:50:21;10.07;;;5.70;;
50355;SDS011;36264;51.296;-0.602;2023-04-08T08:52:47;12.02;;;5.80;;
50355;SDS011;36264;51.296;-0.602;2023-04-08T08:55:19;10.35;;;5.80;;
50355;SDS011;36264;51.296;-0.602;2023-04-08T08:57:45;10.75;;;6.03;;
50355;SDS011;36264;51.296;-0.602;2023-04-08T09:00:14;13.20;;;6.78;;
50355;SDS011;36264;51.296;-0.602;2023-04-08T09:02:40;14.57;;;7.03;;
50355;SDS011;36264;51.296;-0.602;2023-04-08T09:05:06;10.13;;;6.28;;
50355;SDS011;36264;51.296;-0.602;2023-04-08T09:07:34;13.38;;;6.70;;
50355;SDS011;36264;51.296;-0.602;2023-04-08T09:10:00;15.05;;;6.70;;
50355;SDS011;36264;51.296;-0.602;2023-04-08T09:12:26;13.27;;;6.97;;
50355;SDS011;36264;51.296;-0.602;2023-04-08T09:15:08;12.93;;;6.72;;
50355;SDS011;36264;51.296;-0.602;2023-04-08T09:17:35;11.48;;;6.40;;
50355;SDS011;36264;51.296;-0.602;2023-04-08T09:22:34;11.68;;;6.88;;
50355;SDS011;36264;51.296;-0.602;2023-04-08T09:25:22;11.07;;;5.72;;
50355;SDS011;36264;51.296;-0.602;2023-04-08T09:27:49;11.68;;;6.45;;
50355;SDS011;36264;51.296;-0.602;2023-04-08T09:30:16;10.63;;;6.07;;
50355;SDS011;36264;51.296;-0.602;2023-04-08T09:32:51;9.77;;;5.80;;
50355;SDS011;36264;51.296;-0.602;2023-04-08T09:35:19;8.40;;;5.13;;
50355;SDS011;36264;51.296;-0.602;2023-04-08T09:37:45;10.85;;;5.22;;
50355;SDS011;36264;51.296;-0.602;2023-04-08T09:40:11;11.57;;;5.80;;
50355;SDS011;36264;51.296;-0.602;2023-04-08T09:42:39;10.90;;;5.70;;
50355;SDS011;36264;51.296;-0.602;2023-04-08T09:45:05;10.52;;;5.38;;
50355;SDS011;36264;51.296;-0.602;2023-04-08T09:47:36;11.65;;;6.20;;
50355;SDS011;36264;51.296;-0.602;2023-04-08T09:50:06;9.23;;;4.88;;
50355;SDS011;36264;51.296;-0.602;2023-04-08T09:52:35;10.57;;;5.32;;
50355;SDS011;36264;51.296;-0.602;2023-04-08T09:55:08;9.93;;;5.00;;
50355;SDS011;36264;51.296;-0.602;2023-04-08T09:57:39;13.10;;;5.20;;
50355;SDS011;36264;51.296;-0.602;2023-04-08T10:02:38;9.02;;;4.22;;
50355;SDS011;36264;51.296;-0.602;2023-04-08T10:05:11;10.45;;;4.78;;
50355;SDS011;36264;51.296;-0.602;2023-04-08T10:07:37;10.73;;;4.35;;
50355;SDS011;36264;51.296;-0.602;2023-04-08T10:10:03;6.68;;;4.20;;
50355;SDS011;36264;51.296;-0.602;2023-04-08T10:12:30;9.82;;;4.50;;
50355;SDS011;36264;51.296;-0.602;2023-04-08T10:25:35;7.93;;;4.10;;
50355;SDS011;36264;51.296;-0.602;2023-04-08T10:33:11;6.82;;;3.80;;
50355;SDS011;36264;51.296;-0.602;2023-04-08T10:35:42;6.35;;;3.47;;
50355;SDS011;36264;51.296;-0.602;2023-04-08T10:38:14;6.95;;;3.45;;
50355;SDS011;36264;51.296;-0.602;2023-04-08T10:40:41;6.18;;;3.03;;
50355;SDS011;36264;51.296;-0.602;2023-04-08T10:43:08;8.00;;;3.88;;
50355;SDS011;36264;51.296;-0.602;2023-04-08T10:45:35;7.60;;;3.63;;
50355;SDS011;36264;51.296;-0.602;2023-04-08T10:48:13;8.75;;;3.28;;
50355;SDS011;36264;51.296;-0.602;2023-04-08T10:51:00;5.15;;;2.70;;
50355;SDS011;36264;51.296;-0.602;2023-04-08T10:53:26;7.13;;;3.17;;
50355;SDS011;36264;51.296;-0.602;2023-04-08T10:58:31;6.95;;;3.30;;
50355;SDS011;36264;51.296;-0.602;2023-04-08T11:01:06;5.65;;;3.05;;
50355;SDS011;36264;51.296;-0.602;2023-04-08T11:03:32;4.72;;;2.63;;
50355;SDS011;36264;51.296;-0.602;2023-04-08T11:05:59;7.13;;;3.30;;
50355;SDS011;36264;51.296;-0.602;2023-04-08T11:08:27;7.05;;;3.22;;
50355;SDS011;36264;51.296;-0.602;2023-04-08T11:11:02;6.57;;;3.25;;
50355;SDS011;36264;51.296;-0.602;2023-04-08T11:13:28;4.38;;;2.30;;
50355;SDS011;36264;51.296;-0.602;2023-04-08T11:15:54;5.68;;;2.95;;
50355;SDS011;36264;51.296;-0.602;2023-04-08T11:18:21;7.05;;;2.65;;
50355;SDS011;36264;51.296;-0.602;2023-04-08T11:20:49;6.25;;;2.65;;
50355;SDS011;36264;51.296;-0.602;2023-04-08T11:23:15;7.45;;;3.05;;
50355;SDS011;36264;51.296;-0.602;2023-04-08T11:25:42;6.30;;;3.25;;
50355;SDS011;36264;51.296;-0.602;2023-04-08T11:28:09;6.63;;;2.88;;
50355;SDS011;36264;51.296;-0.602;2023-04-08T11:30:35;5.22;;;2.70;;
50355;SDS011;36264;51.296;-0.602;2023-04-08T11:33:01;6.32;;;2.92;;
50355;SDS011;36264;51.296;-0.602;2023-04-08T11:35:29;5.00;;;2.80;;
50355;SDS011;36264;51.296;-0.602;2023-04-08T11:37:57;5.90;;;2.80;;
50355;SDS011;36264;51.296;-0.602;2023-04-08T11:40:23;7.38;;;2.78;;
50355;SDS011;36264;51.296;-0.602;2023-04-08T11:42:50;6.13;;;2.80;;
50355;SDS011;36264;51.296;-0.602;2023-04-08T11:45:17;6.07;;;2.58;;
50355;SDS011;36264;51.296;-0.602;2023-04-08T11:47:45;6.05;;;2.88;;
50355;SDS011;36264;51.296;-0.602;2023-04-08T11:50:11;6.15;;;3.17;;
50355;SDS011;36264;51.296;-0.602;2023-04-08T11:55:27;5.07;;;2.13;;
50355;SDS011;36264;51.296;-0.602;2023-04-08T11:57:54;4.88;;;2.75;;
50355;SDS011;36264;51.296;-0.602;2023-04-08T12:00:21;5.07;;;2.53;;
50355;SDS011;36264;51.296;-0.602;2023-04-08T12:02:47;4.18;;;2.40;;
50355;SDS011;36264;51.296;-0.602;2023-04-08T12:05:13;5.22;;;2.85;;
50355;SDS011;36264;51.296;-0.602;2023-04-08T12:07:42;4.45;;;2.60;;
50355;SDS011;36264;51.296;-0.602;2023-04-08T12:10:10;3.75;;;2.10;;
50355;SDS011;36264;51.296;-0.602;2023-04-08T12:12:36;5.45;;;2.72;;
50355;SDS011;36264;51.296;-0.602;2023-04-08T12:15:02;4.78;;;2.78;;
50355;SDS011;36264;51.296;-0.602;2023-04-08T12:17:28;4.32;;;2.53;;
50355;SDS011;36264;51.296;-0.602;2023-04-08T12:19:53;3.95;;;2.25;;
50355;SDS011;36264;51.296;-0.602;2023-04-08T12:22:19;4.45;;;2.55;;
50355;SDS011;36264;51.296;-0.602;2023-04-08T12:24:45;6.28;;;2.78;;
50355;SDS011;36264;51.296;-0.602;2023-04-08T12:27:10;5.65;;;2.50;;
50355;SDS011;36264;51.296;-0.602;2023-04-08T12:29:35;5.85;;;2.53;;
50355;SDS011;36264;51.296;-0.602;2023-04-08T12:32:01;4.57;;;2.53;;
50355;SDS011;36264;51.296;-0.602;2023-04-08T12:34:26;5.07;;;2.60;;
50355;SDS011;36264;51.296;-0.602;2023-04-08T12:36:52;5.68;;;2.70;;
50355;SDS011;36264;51.296;-0.602;2023-04-08T12:39:19;5.72;;;2.50;;
50355;SDS011;36264;51.296;-0.602;2023-04-08T12:41:44;5.50;;;2.90;;
50355;SDS011;36264;51.296;-0.602;2023-04-08T12:44:10;6.45;;;2.70;;
50355;SDS011;36264;51.296;-0.602;2023-04-08T12:46:35;5.13;;;2.70;;
50355;SDS011;36264;51.296;-0.602;2023-04-08T12:49:01;7.13;;;2.78;;
50355;SDS011;36264;51.296;-0.602;2023-04-08T12:51:26;4.53;;;2.58;;
50355;SDS011;36264;51.296;-0.602;2023-04-08T12:53:51;4.55;;;2.55;;
50355;SDS011;36264;51.296;-0.602;2023-04-08T12:56:16;5.32;;;2.85;;
50355;SDS011;36264;51.296;-0.602;2023-04-08T12:58:42;4.45;;;2.53;;
50355;SDS011;36264;51.296;-0.602;2023-04-08T13:01:07;5.07;;;2.67;;
50355;SDS011;36264;51.296;-0.602;2023-04-08T13:03:33;6.90;;;2.72;;
50355;SDS011;36264;51.296;-0.602;2023-04-08T13:06:00;5.65;;;3.13;;
50355;SDS011;36264;51.296;-0.602;2023-04-08T13:08:25;5.80;;;2.80;;
50355;SDS011;36264;51.296;-0.602;2023-04-08T13:10:51;3.63;;;2.15;;
50355;SDS011;36264;51.296;-0.602;2023-04-08T13:13:16;4.68;;;2.38;;
50355;SDS011;36264;51.296;-0.602;2023-04-08T13:15:42;3.80;;;2.35;;
50355;SDS011;36264;51.296;-0.602;2023-04-08T13:18:07;4.72;;;2.42;;
50355;SDS011;36264;51.296;-0.602;2023-04-08T13:20:33;5.72;;;2.80;;
50355;SDS011;36264;51.296;-0.602;2023-04-08T13:22:59;4.75;;;2.45;;
50355;SDS011;36264;51.296;-0.602;2023-04-08T13:25:25;4.60;;;2.70;;
50355;SDS011;36264;51.296;-0.602;2023-04-08T13:27:50;6.43;;;2.95;;
50355;SDS011;36264;51.296;-0.602;2023-04-08T13:30:15;4.30;;;2.30;;
50355;SDS011;36264;51.296;-0.602;2023-04-08T13:32:41;4.43;;;2.20;;
50355;SDS011;36264;51.296;-0.602;2023-04-08T13:35:06;4.45;;;2.45;;
50355;SDS011;36264;51.296;-0.602;2023-04-08T13:37:32;4.25;;;2.25;;
50355;SDS011;36264;51.296;-0.602;2023-04-08T13:39:57;3.92;;;2.15;;
50355;SDS011;36264;51.296;-0.602;2023-04-08T13:42:22;4.07;;;2.47;;
50355;SDS011;36264;51.296;-0.602;2023-04-08T13:44:49;4.35;;;2.22;;
50355;SDS011;36264;51.296;-0.602;2023-04-08T13:47:14;6.22;;;3.20;;
50355;SDS011;36264;51.296;-0.602;2023-04-08T13:49:40;4.45;;;2.38;;
50355;SDS011;36264;51.296;-0.602;2023-04-08T13:52:05;4.55;;;2.40;;
50355;SDS011;36264;51.296;-0.602;2023-04-08T13:54:31;5.30;;;2.30;;
50355;SDS011;36264;51.296;-0.602;2023-04-08T13:56:56;4.70;;;2.40;;
50355;SDS011;36264;51.296;-0.602;2023-04-08T13:59:22;4.50;;;2.40;;
50355;SDS011;36264;51.296;-0.602;2023-04-08T14:01:47;5.50;;;2.80;;
50355;SDS011;36264;51.296;-0.602;2023-04-08T14:04:12;5.28;;;2.58;;
50355;SDS011;36264;51.296;-0.602;2023-04-08T14:06:38;5.47;;;2.70;;
50355;SDS011;36264;51.296;-0.602;2023-04-08T14:09:03;4.57;;;2.55;;
50355;SDS011;36264;51.296;-0.602;2023-04-08T14:11:28;4.95;;;2.65;;
50355;SDS011;36264;51.296;-0.602;2023-04-08T14:13:54;7.80;;;2.55;;
50355;SDS011;36264;51.296;-0.602;2023-04-08T14:16:19;6.65;;;2.83;;
50355;SDS011;36264;51.296;-0.602;2023-04-08T14:18:45;3.70;;;2.20;;
50355;SDS011;36264;51.296;-0.602;2023-04-08T14:21:10;5.38;;;2.63;;
50355;SDS011;36264;51.296;-0.602;2023-04-08T14:23:38;4.75;;;2.67;;
50355;SDS011;36264;51.296;-0.602;2023-04-08T14:26:03;3.95;;;2.20;;
50355;SDS011;36264;51.296;-0.602;2023-04-08T14:28:28;3.47;;;2.28;;
50355;SDS011;36264;51.296;-0.602;2023-04-08T14:30:54;5.47;;;2.30;;
50355;SDS011;36264;51.296;-0.602;2023-04-08T14:33:20;6.90;;;3.35;;
50355;SDS011;36264;51.296;-0.602;2023-04-08T14:35:45;4.95;;;2.47;;
50355;SDS011;36264;51.296;-0.602;2023-04-08T14:38:11;4.78;;;2.47;;
50355;SDS011;36264;51.296;-0.602;2023-04-08T14:40:36;4.40;;;2.50;;
50355;SDS011;36264;51.296;-0.602;2023-04-08T14:43:02;4.35;;;2.28;;
50355;SDS011;36264;51.296;-0.602;2023-04-08T14:45:27;4.50;;;2.20;;
50355;SDS011;36264;51.296;-0.602;2023-04-08T14:47:53;5.90;;;2.30;;
50355;SDS011;36264;51.296;-0.602;2023-04-08T14:50:18;3.88;;;2.28;;
50355;SDS011;36264;51.296;-0.602;2023-04-08T14:52:43;4.82;;;2.45;;
50355;SDS011;36264;51.296;-0.602;2023-04-08T14:55:09;4.60;;;2.60;;